Time;durP1;ratioP1;P1;durP2;ratioP2;P2;SDS_P1;SDS_P2;PMS_P1;PMS_P2;Temp;Humidity;BMP_temperature;BMP_pressure;BME280_temperature;BME280_humidity;BME280_pressure;Samples;Min_cycle;Max_cycle;Signal;HPM_P1;HPM_P2
2022/08/12 00:43:43;;;;;;;7.47;6.72;;;;;;;;;;5095158;28;20048;-76
2022/08/12 00:48:57;;;;;;;8.95;7.18;;;;;;;;;;5077418;28;20087;-73
2022/08/12 00:52:04;;;;;;;8.30;7.28;;;;;;;;;;5077383;28;20052;-74
2022/08/12 00:54:10;;;;;;;8.13;7.00;;;;;;;;;;5076862;28;20086;-73
2022/08/12 00:56:38;;;;;;;7.57;6.78;;;;;;;;;;5076810;28;20041;-73
2022/08/12 00:59:04;;;;;;;7.60;6.85;;;;;;;;;;5077498;28;20028;-74
2022/08/12 01:01:32;;;;;;;7.88;7.07;;;;;;;;;;5084729;28;20033;-73
2022/08/12 01:12:15;;;;;;;8.20;7.35;;;;;;;;;;5076680;28;20053;-74
2022/08/12 01:14:42;;;;;;;9.77;8.40;;;;;;;;;;5089607;28;20040;-74
2022/08/12 01:17:09;;;;;;;9.68;8.68;;;;;;;;;;5101104;28;20028;-73
2022/08/12 01:19:35;;;;;;;11.77;9.10;;;;;;;;;;5100974;28;20052;-74
2022/08/12 01:22:10;;;;;;;9.50;8.57;;;;;;;;;;5081228;28;20029;-73
2022/08/12 01:24:47;;;;;;;10.60;9.17;;;;;;;;;;5080560;28;20071;-73
2022/08/12 01:27:13;;;;;;;10.25;9.00;;;;;;;;;;5080278;28;20462;-73
2022/08/12 01:29:43;;;;;;;11.02;9.98;;;;;;;;;;5094061;28;20050;-73
2022/08/12 01:32:10;;;;;;;12.90;9.45;;;;;;;;;;5087206;28;20024;-73
2022/08/12 01:34:39;;;;;;;11.40;10.15;;;;;;;;;;5080514;28;20171;-73
2022/08/12 01:37:06;;;;;;;10.73;9.63;;;;;;;;;;5078681;28;20052;-74
2022/08/12 01:39:53;;;;;;;12.23;10.25;;;;;;;;;;5079825;28;20049;-73
2022/08/12 01:42:20;;;;;;;12.85;9.52;;;;;;;;;;5080581;28;20071;-73
2022/08/12 01:44:49;;;;;;;13.45;10.25;;;;;;;;;;5080325;28;20039;-73
2022/08/12 01:47:30;;;;;;;11.98;10.07;;;;;;;;;;5080157;28;20033;-73
2022/08/12 01:50:08;;;;;;;11.40;9.95;;;;;;;;;;5080169;28;20065;-74
2022/08/12 01:52:43;;;;;;;12.18;10.15;;;;;;;;;;5065489;28;20092;-73
2022/08/12 01:55:10;;;;;;;13.63;10.18;;;;;;;;;;5080257;28;20099;-73
2022/08/12 01:57:43;;;;;;;13.63;10.57;;;;;;;;;;5079168;28;20105;-74
2022/08/12 02:00:13;;;;;;;11.15;9.73;;;;;;;;;;5078807;28;20029;-74
2022/08/12 02:02:45;;;;;;;10.70;9.07;;;;;;;;;;5062463;28;20029;-73
2022/08/12 02:11:17;;;;;;;12.10;10.02;;;;;;;;;;5080174;28;20037;-74
2022/08/12 02:14:02;;;;;;;13.57;10.45;;;;;;;;;;5079588;28;20049;-73
2022/08/12 02:16:29;;;;;;;12.75;11.45;;;;;;;;;;5078296;28;20033;-73
2022/08/12 02:19:14;;;;;;;14.15;10.38;;;;;;;;;;5079400;28;20029;-73
2022/08/12 02:21:54;;;;;;;12.88;11.35;;;;;;;;;;5079618;28;20037;-73
2022/08/12 02:24:21;;;;;;;12.10;10.02;;;;;;;;;;5060086;28;20056;-73
2022/08/12 02:26:48;;;;;;;12.82;10.45;;;;;;;;;;5070004;28;20067;-73
2022/08/12 02:29:14;;;;;;;14.52;11.63;;;;;;;;;;5079651;28;20024;-74
2022/08/12 02:31:45;;;;;;;14.45;10.65;;;;;;;;;;5079100;28;20029;-73
2022/08/12 02:34:12;;;;;;;11.93;10.73;;;;;;;;;;5078683;28;20037;-73
2022/08/12 02:36:39;;;;;;;12.00;10.70;;;;;;;;;;5079436;28;20037;-73
2022/08/12 02:39:08;;;;;;;14.57;10.55;;;;;;;;;;5079475;28;20043;-73
2022/08/12 02:41:36;;;;;;;15.13;10.40;;;;;;;;;;5078506;28;20032;-74
2022/08/12 02:44:07;;;;;;;13.63;10.85;;;;;;;;;;5079629;28;20029;-74
2022/08/12 02:46:33;;;;;;;12.05;10.35;;;;;;;;;;5078584;28;20127;-73
2022/08/12 02:49:02;;;;;;;13.30;10.63;;;;;;;;;;5078115;28;20088;-73
2022/08/12 02:51:30;;;;;;;13.48;9.15;;;;;;;;;;5078678;28;20033;-74
2022/08/12 02:53:57;;;;;;;12.65;10.13;;;;;;;;;;5079149;28;20048;-73
2022/08/12 02:56:26;;;;;;;11.40;9.52;;;;;;;;;;5079100;28;20028;-75
2022/08/12 02:58:53;;;;;;;14.48;10.20;;;;;;;;;;5079088;28;20037;-75
2022/08/12 03:01:22;;;;;;;9.15;8.02;;;;;;;;;;5078450;28;20020;-73
2022/08/12 03:03:51;;;;;;;9.43;7.75;;;;;;;;;;5078648;28;20029;-73
2022/08/12 03:06:21;;;;;;;12.57;8.52;;;;;;;;;;5078901;28;20029;-74
2022/08/12 03:08:48;;;;;;;9.13;7.38;;;;;;;;;;5076784;28;20039;-74
2022/08/12 03:11:33;;;;;;;11.48;7.82;;;;;;;;;;5078529;28;20068;-73
2022/08/12 03:14:00;;;;;;;11.27;7.65;;;;;;;;;;5078795;28;20063;-74
2022/08/12 03:16:29;;;;;;;9.88;7.40;;;;;;;;;;5075474;28;20103;-73
2022/08/12 03:18:55;;;;;;;11.00;8.55;;;;;;;;;;5077967;28;20049;-73
2022/08/12 03:21:23;;;;;;;7.90;7.05;;;;;;;;;;5078246;28;20100;-74
2022/08/12 03:23:51;;;;;;;9.40;7.82;;;;;;;;;;5076952;28;20029;-73
2022/08/12 03:26:20;;;;;;;10.93;7.47;;;;;;;;;;5077660;28;20063;-75
2022/08/12 03:28:52;;;;;;;10.23;7.63;;;;;;;;;;5078617;28;20033;-73
2022/08/12 03:31:20;;;;;;;9.68;7.20;;;;;;;;;;5077011;28;20049;-73
2022/08/12 03:33:50;;;;;;;9.23;7.05;;;;;;;;;;5077934;28;20048;-73
2022/08/12 03:36:19;;;;;;;8.52;7.05;;;;;;;;;;5078108;28;20111;-73
2022/08/12 03:38:59;;;;;;;10.80;6.95;;;;;;;;;;5077842;28;20050;-73
2022/08/12 03:41:36;;;;;;;10.63;8.23;;;;;;;;;;5077728;28;20048;-73
2022/08/12 04:01:27;;;;;;;9.38;6.57;;;;;;;;;;5076730;28;20204;-73
2022/08/12 04:03:53;;;;;;;10.75;7.38;;;;;;;;;;5077728;28;20092;-73
2022/08/12 04:06:27;;;;;;;9.73;6.60;;;;;;;;;;5076893;28;20105;-73
2022/08/12 04:08:57;;;;;;;9.93;6.50;;;;;;;;;;5077761;28;20079;-74
2022/08/12 04:14:19;;;;;;;7.75;5.95;;;;;;;;;;5075864;28;20091;-73
2022/08/12 04:16:47;;;;;;;8.18;6.22;;;;;;;;;;5076692;28;20037;-73
2022/08/12 04:19:14;;;;;;;8.73;6.10;;;;;;;;;;5077844;28;20047;-73
2022/08/12 04:21:40;;;;;;;7.82;6.40;;;;;;;;;;5077528;28;20032;-74
2022/08/12 04:24:07;;;;;;;8.82;6.63;;;;;;;;;;5077575;28;20021;-73
2022/08/12 04:26:34;;;;;;;7.35;6.13;;;;;;;;;;5076850;28;20056;-73
2022/08/12 04:29:01;;;;;;;9.55;6.70;;;;;;;;;;5068133;28;20045;-74
2022/08/12 04:31:33;;;;;;;12.90;7.28;;;;;;;;;;5076461;28;20060;-74
2022/08/12 04:34:00;;;;;;;7.32;6.10;;;;;;;;;;5076883;28;20048;-73
2022/08/12 04:36:26;;;;;;;7.35;6.47;;;;;;;;;;5077835;28;20033;-75
2022/08/12 04:38:52;;;;;;;9.32;6.30;;;;;;;;;;5076984;28;20035;-74
2022/08/12 04:41:19;;;;;;;8.60;6.07;;;;;;;;;;5077205;28;20093;-73
2022/08/12 04:43:46;;;;;;;12.10;6.38;;;;;;;;;;5068239;28;20067;-73
2022/08/12 04:46:15;;;;;;;7.60;6.18;;;;;;;;;;5075620;28;20079;-73
2022/08/12 04:48:41;;;;;;;8.63;5.70;;;;;;;;;;5076828;28;20590;-73
2022/08/12 04:51:07;;;;;;;8.63;6.80;;;;;;;;;;5080162;28;20025;-74
2022/08/12 04:53:34;;;;;;;9.63;6.82;;;;;;;;;;5081026;28;20056;-74
2022/08/12 04:56:00;;;;;;;7.80;6.80;;;;;;;;;;5081730;28;20033;-73
2022/08/12 04:58:28;;;;;;;7.75;6.55;;;;;;;;;;5081017;28;20051;-73
2022/08/12 05:00:54;;;;;;;9.15;6.30;;;;;;;;;;5081244;28;20045;-74
2022/08/12 05:03:20;;;;;;;7.72;6.10;;;;;;;;;;5081799;28;20047;-73
2022/08/12 05:05:46;;;;;;;7.93;6.72;;;;;;;;;;5080744;28;20025;-73
2022/08/12 05:08:15;;;;;;;8.50;6.43;;;;;;;;;;5081137;28;20033;-73
2022/08/12 05:10:42;;;;;;;8.95;6.80;;;;;;;;;;5081082;28;20053;-73
2022/08/12 05:13:10;;;;;;;9.82;7.38;;;;;;;;;;5080531;28;20025;-73
2022/08/12 05:15:39;;;;;;;10.20;7.55;;;;;;;;;;5080365;28;20025;-74
2022/08/12 05:18:05;;;;;;;9.75;7.25;;;;;;;;;;5080282;28;20040;-74
2022/08/12 05:20:32;;;;;;;8.63;6.80;;;;;;;;;;5080948;28;20071;-73
2022/08/12 05:23:19;;;;;;;12.43;7.90;;;;;;;;;;5080472;28;20048;-74
2022/08/12 05:25:48;;;;;;;10.35;6.82;;;;;;;;;;5080584;28;20028;-75
2022/08/12 05:28:15;;;;;;;15.18;8.23;;;;;;;;;;5079486;28;20116;-75
2022/08/12 05:30:47;;;;;;;10.02;7.82;;;;;;;;;;5080300;28;20081;-73
2022/08/12 05:33:16;;;;;;;9.80;8.15;;;;;;;;;;5080449;28;20052;-74
2022/08/12 05:35:48;;;;;;;10.18;7.53;;;;;;;;;;5080886;28;20043;-73
2022/08/12 05:41:04;;;;;;;12.43;8.18;;;;;;;;;;5079479;28;20029;-74
2022/08/12 05:43:35;;;;;;;10.52;7.50;;;;;;;;;;5078041;28;20037;-75
2022/08/12 05:46:02;;;;;;;8.85;6.82;;;;;;;;;;5074043;28;20029;-73
2022/08/12 05:48:29;;;;;;;9.43;6.50;;;;;;;;;;5068693;28;20128;-79
2022/08/12 05:50:56;;;;;;;8.75;7.65;;;;;;;;;;5072857;28;20077;-73
2022/08/12 05:53:22;;;;;;;8.95;6.70;;;;;;;;;;5077583;28;20049;-74
2022/08/12 05:55:51;;;;;;;8.15;6.20;;;;;;;;;;5077566;28;20071;-75
2022/08/12 05:58:17;;;;;;;9.43;6.70;;;;;;;;;;5076312;28;20021;-74
2022/08/12 06:00:45;;;;;;;9.20;6.40;;;;;;;;;;5079546;28;20032;-75
2022/08/12 06:03:15;;;;;;;7.43;6.35;;;;;;;;;;5080535;28;20052;-74
2022/08/12 06:05:44;;;;;;;6.93;5.78;;;;;;;;;;5080584;28;20048;-75
2022/08/12 06:08:10;;;;;;;8.32;5.90;;;;;;;;;;5080250;28;20103;-76
2022/08/12 06:10:39;;;;;;;7.13;5.65;;;;;;;;;;5080496;28;20025;-75
2022/08/12 06:13:06;;;;;;;7.32;5.95;;;;;;;;;;5078954;28;20056;-75
2022/08/12 06:15:36;;;;;;;7.07;5.90;;;;;;;;;;5079870;28;20060;-75
2022/08/12 06:18:07;;;;;;;6.28;5.50;;;;;;;;;;5064909;28;20043;-74
2022/08/12 06:20:43;;;;;;;7.35;5.28;;;;;;;;;;5076896;28;20063;-76
2022/08/12 06:23:10;;;;;;;7.47;5.00;;;;;;;;;;5078822;28;20067;-75
2022/08/12 06:25:36;;;;;;;10.10;5.45;;;;;;;;;;5079035;28;20060;-75
2022/08/12 06:28:02;;;;;;;8.20;5.40;;;;;;;;;;5079982;28;20109;-74
2022/08/12 06:30:29;;;;;;;7.78;5.28;;;;;;;;;;5080158;28;20029;-74
2022/08/12 06:32:55;;;;;;;7.65;4.78;;;;;;;;;;5079441;28;20033;-74
2022/08/12 06:35:21;;;;;;;6.03;4.63;;;;;;;;;;5079703;28;20035;-73
2022/08/12 06:37:49;;;;;;;5.95;5.32;;;;;;;;;;5078739;28;20036;-74
2022/08/12 06:40:15;;;;;;;7.55;5.30;;;;;;;;;;5078850;28;20036;-75
2022/08/12 06:42:47;;;;;;;7.40;5.15;;;;;;;;;;5068872;28;20049;-75
2022/08/12 06:45:14;;;;;;;8.43;5.05;;;;;;;;;;5063892;28;20080;-75
2022/08/12 06:47:40;;;;;;;7.05;5.20;;;;;;;;;;5059705;28;20033;-74
2022/08/12 06:50:07;;;;;;;7.50;5.00;;;;;;;;;;5072820;28;20051;-74
2022/08/12 06:52:33;;;;;;;7.43;5.32;;;;;;;;;;5058369;28;20036;-74
2022/08/12 06:54:59;;;;;;;7.05;4.80;;;;;;;;;;5068897;28;20064;-73
2022/08/12 06:57:26;;;;;;;6.30;4.68;;;;;;;;;;5074628;28;20048;-74
2022/08/12 06:59:53;;;;;;;8.57;4.95;;;;;;;;;;5064336;28;20096;-77
2022/08/12 07:02:21;;;;;;;5.30;4.70;;;;;;;;;;5056445;28;20120;-73
2022/08/12 07:04:47;;;;;;;7.28;4.70;;;;;;;;;;5076110;28;20048;-73
2022/08/12 07:07:13;;;;;;;6.00;5.10;;;;;;;;;;5077870;28;20064;-72
2022/08/12 07:09:41;;;;;;;7.63;5.07;;;;;;;;;;5078432;28;20052;-73
2022/08/12 07:12:18;;;;;;;5.97;4.47;;;;;;;;;;5068705;28;20072;-73
2022/08/12 07:14:45;;;;;;;6.47;4.78;;;;;;;;;;5075245;28;20045;-73
2022/08/12 07:17:13;;;;;;;7.30;4.50;;;;;;;;;;5067286;28;20041;-73
2022/08/12 07:19:41;;;;;;;7.70;4.57;;;;;;;;;;5075341;28;20033;-73
2022/08/12 07:22:09;;;;;;;6.85;5.03;;;;;;;;;;5071419;28;20045;-73
2022/08/12 07:24:35;;;;;;;6.57;4.68;;;;;;;;;;5074305;28;20063;-73
2022/08/12 07:27:01;;;;;;;5.47;4.75;;;;;;;;;;5070002;28;20067;-75
2022/08/12 07:29:27;;;;;;;5.20;3.90;;;;;;;;;;5073408;28;20056;-74
2022/08/12 07:31:58;;;;;;;7.15;4.38;;;;;;;;;;5054228;28;20042;-73
2022/08/12 07:34:25;;;;;;;6.15;4.60;;;;;;;;;;5076675;28;20033;-73
2022/08/12 07:36:51;;;;;;;7.80;4.90;;;;;;;;;;5073751;28;20025;-75
2022/08/12 07:39:17;;;;;;;6.10;4.38;;;;;;;;;;5064127;28;20041;-86
2022/08/12 07:41:43;;;;;;;6.18;4.55;;;;;;;;;;5050025;28;20096;-78
2022/08/12 07:44:17;;;;;;;7.50;4.32;;;;;;;;;;5068049;28;20048;-80
2022/08/12 07:46:43;;;;;;;7.50;4.38;;;;;;;;;;5072357;28;20045;-74
2022/08/12 07:49:14;;;;;;;9.50;4.40;;;;;;;;;;5077318;28;20085;-74
2022/08/12 07:51:40;;;;;;;5.88;4.18;;;;;;;;;;5076617;28;20029;-76
2022/08/12 07:54:08;;;;;;;6.40;3.78;;;;;;;;;;5077860;28;20064;-77
2022/08/12 07:56:35;;;;;;;5.50;4.00;;;;;;;;;;5076295;28;20045;-83
2022/08/12 07:59:01;;;;;;;7.55;4.07;;;;;;;;;;5071970;28;20045;-79
2022/08/12 08:01:28;;;;;;;6.10;4.28;;;;;;;;;;5075829;28;20059;-77
2022/08/12 08:06:43;;;;;;;6.57;4.38;;;;;;;;;;5050431;28;20468;-83
2022/08/12 08:09:13;;;;;;;6.95;4.13;;;;;;;;;;5072543;28;20051;-76
2022/08/12 08:14:27;;;;;;;6.32;4.28;;;;;;;;;;5075710;28;20088;-77
2022/08/12 08:16:54;;;;;;;7.60;4.47;;;;;;;;;;5058703;28;20055;-79
2022/08/12 08:19:22;;;;;;;8.73;3.67;;;;;;;;;;5075943;28;20064;-76
2022/08/12 08:21:55;;;;;;;5.38;4.10;;;;;;;;;;5075238;28;20109;-76
2022/08/12 08:24:23;;;;;;;5.80;3.85;;;;;;;;;;5073453;28;20049;-77
2022/08/12 08:26:50;;;;;;;7.82;4.10;;;;;;;;;;5065501;28;20092;-76
2022/08/12 08:29:16;;;;;;;7.05;3.90;;;;;;;;;;5074775;28;20028;-76
2022/08/12 08:31:45;;;;;;;6.55;4.05;;;;;;;;;;5073599;28;20041;-78
2022/08/12 08:34:14;;;;;;;6.43;4.00;;;;;;;;;;5070786;28;20029;-77
2022/08/12 08:36:42;;;;;;;6.75;3.78;;;;;;;;;;5072587;28;20038;-77
2022/08/12 08:39:08;;;;;;;4.50;3.42;;;;;;;;;;5070801;28;20080;-77
2022/08/12 08:44:20;;;;;;;4.13;3.53;;;;;;;;;;5071106;28;20033;-76
2022/08/12 08:46:48;;;;;;;6.63;3.90;;;;;;;;;;5075812;28;20482;-77
2022/08/12 08:49:14;;;;;;;5.78;3.90;;;;;;;;;;5075232;28;20037;-79
2022/08/12 08:51:41;;;;;;;7.03;3.58;;;;;;;;;;5054942;28;20025;-77
2022/08/12 08:54:10;;;;;;;7.80;3.50;;;;;;;;;;5059194;28;20049;-81
2022/08/12 08:56:43;;;;;;;8.82;3.70;;;;;;;;;;5064383;28;20080;-76
2022/08/12 08:59:12;;;;;;;4.93;3.50;;;;;;;;;;5076464;28;20032;-76
2022/08/12 09:01:39;;;;;;;8.30;3.90;;;;;;;;;;5077891;28;20044;-76
2022/08/12 09:04:06;;;;;;;6.07;3.58;;;;;;;;;;5077934;28;20029;-76
2022/08/12 09:06:32;;;;;;;4.95;3.60;;;;;;;;;;5077894;28;20069;-76
2022/08/12 09:08:58;;;;;;;4.45;3.47;;;;;;;;;;5076404;28;20064;-76
2022/08/12 09:14:09;;;;;;;6.00;3.55;;;;;;;;;;5077217;28;20041;-76
2022/08/12 09:16:39;;;;;;;4.93;3.75;;;;;;;;;;5077199;28;20075;-77
2022/08/12 09:19:06;;;;;;;5.05;3.70;;;;;;;;;;5077216;28;20037;-76
2022/08/12 09:21:32;;;;;;;6.50;4.05;;;;;;;;;;5077261;28;20085;-76
2022/08/12 09:24:00;;;;;;;6.13;4.05;;;;;;;;;;5076280;28;20025;-76
2022/08/12 09:26:29;;;;;;;6.35;4.20;;;;;;;;;;5076426;28;20033;-76
2022/08/12 09:28:56;;;;;;;7.40;4.32;;;;;;;;;;5077530;28;20058;-76
2022/08/12 09:31:22;;;;;;;6.85;4.30;;;;;;;;;;5077522;28;20028;-76
2022/08/12 09:33:49;;;;;;;7.40;4.28;;;;;;;;;;5077485;28;20056;-76
2022/08/12 09:36:16;;;;;;;5.35;3.90;;;;;;;;;;5076860;28;20029;-76
2022/08/12 09:38:43;;;;;;;6.30;4.25;;;;;;;;;;5080686;28;20033;-76
2022/08/12 09:41:09;;;;;;;5.93;3.90;;;;;;;;;;5081200;28;20037;-76
2022/08/12 09:46:21;;;;;;;5.45;4.00;;;;;;;;;;5065295;28;20045;-75
2022/08/12 09:48:47;;;;;;;4.72;3.92;;;;;;;;;;5064073;28;20049;-77
2022/08/12 09:51:13;;;;;;;6.18;4.38;;;;;;;;;;5076608;28;20053;-76
2022/08/12 09:53:40;;;;;;;5.88;3.92;;;;;;;;;;5078302;28;20029;-75
2022/08/12 09:56:11;;;;;;;5.53;3.60;;;;;;;;;;5073107;28;20029;-74
2022/08/12 09:58:37;;;;;;;4.93;3.95;;;;;;;;;;5071508;28;20124;-73
2022/08/12 10:01:07;;;;;;;5.82;3.70;;;;;;;;;;5073878;28;20045;-73
2022/08/12 10:03:35;;;;;;;6.28;3.60;;;;;;;;;;5074214;28;20071;-74
2022/08/12 10:06:02;;;;;;;6.55;3.53;;;;;;;;;;5071864;28;20048;-74
2022/08/12 10:08:29;;;;;;;9.05;3.97;;;;;;;;;;5071701;28;20045;-74
2022/08/12 10:13:41;;;;;;;4.93;3.80;;;;;;;;;;5060150;28;20049;-80
2022/08/12 10:16:11;;;;;;;3.90;3.35;;;;;;;;;;5068119;28;20052;-74
2022/08/12 10:18:42;;;;;;;5.07;3.33;;;;;;;;;;5073879;28;20036;-74
2022/08/12 10:21:09;;;;;;;5.32;3.50;;;;;;;;;;5072584;28;20069;-74
2022/08/12 10:23:36;;;;;;;5.55;3.78;;;;;;;;;;5076430;28;20037;-75
2022/08/12 10:31:32;;;;;;;5.27;3.50;;;;;;;;;;5076063;28;20045;-75
2022/08/12 10:33:58;;;;;;;5.35;3.60;;;;;;;;;;5076629;28;20067;-76
2022/08/12 10:36:30;;;;;;;5.05;3.60;;;;;;;;;;5075316;28;20033;-74
2022/08/12 10:38:56;;;;;;;6.65;3.70;;;;;;;;;;5077226;28;20048;-73
2022/08/12 10:44:11;;;;;;;4.85;3.95;;;;;;;;;;5078465;28;20075;-75
2022/08/12 10:46:37;;;;;;;5.93;3.72;;;;;;;;;;5076503;28;20065;-74
2022/08/12 10:49:03;;;;;;;6.15;3.47;;;;;;;;;;5072331;28;20076;-78
2022/08/12 10:51:30;;;;;;;5.03;3.42;;;;;;;;;;5066712;28;20067;-76
2022/08/12 10:53:57;;;;;;;7.25;3.63;;;;;;;;;;5072587;28;20029;-78
2022/08/12 10:56:23;;;;;;;4.38;3.60;;;;;;;;;;5075318;28;20100;-78
2022/08/12 10:58:50;;;;;;;3.83;3.40;;;;;;;;;;5078524;28;20037;-78
2022/08/12 11:01:17;;;;;;;6.50;3.20;;;;;;;;;;5078933;28;20033;-78
2022/08/12 11:03:43;;;;;;;11.48;3.88;;;;;;;;;;5076881;28;20062;-78
2022/08/12 11:06:10;;;;;;;10.15;3.55;;;;;;;;;;5078172;28;20085;-78
2022/08/12 11:08:38;;;;;;;4.47;3.50;;;;;;;;;;5078964;28;20059;-78
2022/08/12 11:11:07;;;;;;;3.72;3.33;;;;;;;;;;5075668;28;20037;-80
2022/08/12 11:13:36;;;;;;;4.82;3.47;;;;;;;;;;5074870;28;20047;-78
2022/08/12 11:16:05;;;;;;;6.93;3.42;;;;;;;;;;5077582;28;20092;-78
2022/08/12 11:18:31;;;;;;;6.63;3.78;;;;;;;;;;5079422;28;20025;-78
2022/08/12 11:20:58;;;;;;;4.70;3.35;;;;;;;;;;5078653;28;20081;-78
2022/08/12 11:23:27;;;;;;;8.77;3.42;;;;;;;;;;5078322;28;20047;-77
2022/08/12 11:25:53;;;;;;;5.93;3.67;;;;;;;;;;5077972;28;20069;-80
2022/08/12 11:28:19;;;;;;;4.75;3.53;;;;;;;;;;5078945;28;20044;-78
2022/08/12 11:30:45;;;;;;;4.25;3.70;;;;;;;;;;5077791;28;20048;-79
2022/08/12 11:33:11;;;;;;;7.03;3.33;;;;;;;;;;5078573;28;20056;-78
2022/08/12 11:35:40;;;;;;;6.50;3.80;;;;;;;;;;5076611;28;20033;-78
2022/08/12 11:38:06;;;;;;;4.05;3.25;;;;;;;;;;5077364;28;20037;-78
2022/08/12 11:40:32;;;;;;;4.38;3.20;;;;;;;;;;5075220;28;20033;-78
2022/08/12 11:42:59;;;;;;;5.65;3.15;;;;;;;;;;5074884;28;20037;-78
2022/08/12 11:45:29;;;;;;;10.65;3.60;;;;;;;;;;5061553;28;20040;-79
2022/08/12 11:47:55;;;;;;;6.50;3.70;;;;;;;;;;5078116;28;20044;-78
2022/08/12 11:50:21;;;;;;;5.95;3.60;;;;;;;;;;5078631;28;20025;-78
2022/08/12 11:52:48;;;;;;;5.53;3.28;;;;;;;;;;5076790;28;20047;-78
2022/08/12 11:55:14;;;;;;;4.65;3.38;;;;;;;;;;5077870;28;20056;-78
2022/08/12 11:57:51;;;;;;;5.53;3.50;;;;;;;;;;5075005;28;20028;-78
2022/08/12 12:00:17;;;;;;;4.72;3.50;;;;;;;;;;5075433;28;20035;-77
2022/08/12 12:02:43;;;;;;;4.22;3.42;;;;;;;;;;5053208;28;20056;-83
2022/08/12 12:05:09;;;;;;;5.75;3.30;;;;;;;;;;5074748;28;20048;-80
2022/08/12 12:07:39;;;;;;;7.82;3.13;;;;;;;;;;5051627;28;20072;-77
2022/08/12 12:10:06;;;;;;;5.25;3.60;;;;;;;;;;5067556;28;20074;-79
2022/08/12 12:12:32;;;;;;;9.25;3.63;;;;;;;;;;5075572;28;20037;-78
2022/08/12 12:14:58;;;;;;;10.77;4.32;;;;;;;;;;5077892;28;20055;-78
2022/08/12 12:17:24;;;;;;;7.80;3.35;;;;;;;;;;5078400;28;20035;-77
2022/08/12 12:19:51;;;;;;;7.35;3.30;;;;;;;;;;5078310;28;20025;-77
2022/08/12 12:22:18;;;;;;;4.18;3.78;;;;;;;;;;5077772;28;20025;-77
2022/08/12 12:24:49;;;;;;;5.55;3.42;;;;;;;;;;5078368;28;20072;-77
2022/08/12 12:27:21;;;;;;;5.65;3.53;;;;;;;;;;5076886;28;20039;-77
2022/08/12 12:29:47;;;;;;;7.50;3.60;;;;;;;;;;5078185;28;20043;-77
2022/08/12 12:32:14;;;;;;;6.60;3.45;;;;;;;;;;5078214;28;20048;-78
2022/08/12 12:34:40;;;;;;;5.70;3.42;;;;;;;;;;5061004;28;20032;-77
2022/08/12 12:37:10;;;;;;;5.07;3.10;;;;;;;;;;5078177;28;20030;-77
2022/08/12 12:39:36;;;;;;;7.10;3.50;;;;;;;;;;5078074;28;20088;-77
2022/08/12 12:42:02;;;;;;;4.55;3.20;;;;;;;;;;5068478;28;20048;-77
2022/08/12 12:44:28;;;;;;;5.80;3.78;;;;;;;;;;5077845;28;20037;-77
2022/08/12 12:46:54;;;;;;;5.00;3.47;;;;;;;;;;5077949;28;20037;-77
2022/08/12 12:49:20;;;;;;;5.57;3.60;;;;;;;;;;5077433;28;20048;-77
2022/08/12 12:51:46;;;;;;;5.22;3.45;;;;;;;;;;5078011;28;20039;-77
2022/08/12 12:54:12;;;;;;;7.47;3.70;;;;;;;;;;5078046;28;20025;-77
2022/08/12 12:56:40;;;;;;;3.65;3.22;;;;;;;;;;5076673;28;20034;-78
2022/08/12 12:59:07;;;;;;;6.32;3.60;;;;;;;;;;5077981;28;20037;-77
2022/08/12 13:01:37;;;;;;;7.22;3.42;;;;;;;;;;5077932;28;20025;-77
2022/08/12 13:04:06;;;;;;;4.88;3.30;;;;;;;;;;5078024;28;20043;-77
2022/08/12 13:06:32;;;;;;;4.93;3.33;;;;;;;;;;5060795;28;20029;-77
2022/08/12 13:09:02;;;;;;;6.47;3.70;;;;;;;;;;5077757;28;20043;-77
2022/08/12 13:11:28;;;;;;;4.07;3.10;;;;;;;;;;5078052;28;20053;-78
2022/08/12 13:13:55;;;;;;;5.90;3.35;;;;;;;;;;5080461;28;20055;-77
2022/08/12 13:16:21;;;;;;;6.03;3.60;;;;;;;;;;5081896;28;20037;-78
2022/08/12 13:18:48;;;;;;;8.40;3.65;;;;;;;;;;5081672;28;20033;-77
2022/08/12 13:21:16;;;;;;;5.90;3.20;;;;;;;;;;5081584;28;20041;-78
2022/08/12 13:23:54;;;;;;;7.32;3.20;;;;;;;;;;5081559;28;20029;-77
2022/08/12 13:26:20;;;;;;;6.90;3.22;;;;;;;;;;5061253;28;20061;-78
2022/08/12 13:28:52;;;;;;;5.07;3.30;;;;;;;;;;5067362;28;20021;-78
2022/08/12 13:31:18;;;;;;;5.93;3.17;;;;;;;;;;5081432;28;20049;-77
2022/08/12 13:33:45;;;;;;;5.53;3.30;;;;;;;;;;5081462;28;20033;-78
2022/08/12 13:36:11;;;;;;;5.43;3.28;;;;;;;;;;5081355;28;20141;-77
2022/08/12 13:38:38;;;;;;;6.68;3.40;;;;;;;;;;5079964;28;20057;-77
2022/08/12 13:41:04;;;;;;;3.92;3.15;;;;;;;;;;5081265;28;20025;-78
2022/08/12 13:43:31;;;;;;;8.60;3.63;;;;;;;;;;5080441;28;20029;-77
2022/08/12 13:45:58;;;;;;;4.05;2.90;;;;;;;;;;5063681;28;20044;-79
2022/08/12 13:48:24;;;;;;;6.13;3.10;;;;;;;;;;5080519;28;20059;-78
2022/08/12 13:50:51;;;;;;;6.60;3.10;;;;;;;;;;5080609;28;20045;-78
2022/08/12 13:53:21;;;;;;;3.70;3.00;;;;;;;;;;5080635;28;20037;-77
2022/08/12 13:55:48;;;;;;;4.82;2.85;;;;;;;;;;5080450;28;20084;-77
2022/08/12 13:58:19;;;;;;;4.60;3.00;;;;;;;;;;5079333;28;20056;-78
2022/08/12 14:00:50;;;;;;;4.95;3.40;;;;;;;;;;5080820;28;20124;-77
2022/08/12 14:03:23;;;;;;;5.00;2.90;;;;;;;;;;5080737;28;20031;-77
2022/08/12 14:05:49;;;;;;;4.53;3.40;;;;;;;;;;5080839;28;20092;-77
2022/08/12 14:08:16;;;;;;;6.32;3.20;;;;;;;;;;5079707;28;20040;-77
2022/08/12 14:10:45;;;;;;;5.15;3.30;;;;;;;;;;5079035;28;20071;-80
2022/08/12 14:13:16;;;;;;;6.93;3.22;;;;;;;;;;5071041;28;20049;-78
2022/08/12 14:15:48;;;;;;;6.85;3.30;;;;;;;;;;5071847;28;20399;-82
2022/08/12 14:18:16;;;;;;;4.70;3.20;;;;;;;;;;5071393;28;20071;-77
2022/08/12 14:20:46;;;;;;;5.20;3.83;;;;;;;;;;5079072;28;20040;-77
2022/08/12 14:23:13;;;;;;;5.22;3.30;;;;;;;;;;5079720;28;20027;-77
2022/08/12 14:25:39;;;;;;;4.80;2.97;;;;;;;;;;5076126;28;20085;-78
2022/08/12 14:28:14;;;;;;;6.25;3.47;;;;;;;;;;5076716;28;20033;-78
2022/08/12 14:30:46;;;;;;;4.43;3.10;;;;;;;;;;5078291;28;20075;-77
2022/08/12 14:33:14;;;;;;;6.10;3.20;;;;;;;;;;5072260;28;20037;-77
2022/08/12 14:35:40;;;;;;;4.10;3.40;;;;;;;;;;5070578;28;20038;-78
2022/08/12 14:38:19;;;;;;;5.93;3.38;;;;;;;;;;5061004;28;20029;-77
2022/08/12 14:40:46;;;;;;;4.32;2.83;;;;;;;;;;5061170;28;20036;-77
2022/08/12 14:43:13;;;;;;;6.03;3.22;;;;;;;;;;5079451;28;20025;-77
2022/08/12 14:45:39;;;;;;;6.50;3.13;;;;;;;;;;5073983;28;20029;-77
2022/08/12 14:48:05;;;;;;;6.65;3.33;;;;;;;;;;5078537;28;20037;-77
2022/08/12 14:50:32;;;;;;;6.22;3.28;;;;;;;;;;5072574;28;20021;-77
2022/08/12 14:52:58;;;;;;;6.68;3.55;;;;;;;;;;5071693;28;20024;-78
2022/08/12 14:55:32;;;;;;;5.00;3.25;;;;;;;;;;5079415;28;20336;-77
2022/08/12 14:57:58;;;;;;;5.53;3.45;;;;;;;;;;5079627;28;20078;-78
2022/08/12 15:03:13;;;;;;;5.55;3.40;;;;;;;;;;5078927;28;20052;-77
2022/08/12 15:05:39;;;;;;;8.68;3.50;;;;;;;;;;5079045;28;20040;-77
2022/08/12 15:08:12;;;;;;;5.60;3.20;;;;;;;;;;5079700;28;20037;-77
2022/08/12 15:10:45;;;;;;;6.30;3.38;;;;;;;;;;5079595;28;20021;-77
2022/08/12 15:13:11;;;;;;;4.25;3.10;;;;;;;;;;5079495;28;20033;-77
2022/08/12 15:15:40;;;;;;;5.70;3.58;;;;;;;;;;5078251;28;20040;-77
2022/08/12 15:18:07;;;;;;;5.15;2.97;;;;;;;;;;5074399;28;20048;-86
2022/08/12 15:20:33;;;;;;;4.10;3.40;;;;;;;;;;5075277;28;20025;-78
2022/08/12 15:22:59;;;;;;;4.82;3.30;;;;;;;;;;5060101;28;20066;-78
2022/08/12 15:25:26;;;;;;;4.95;3.08;;;;;;;;;;5076538;28;20040;-77
2022/08/12 15:27:52;;;;;;;5.68;3.25;;;;;;;;;;5078406;28;20036;-78
2022/08/12 15:30:23;;;;;;;4.63;3.30;;;;;;;;;;5071594;28;20025;-78
2022/08/12 15:32:50;;;;;;;5.43;3.22;;;;;;;;;;5078676;28;20029;-77
2022/08/12 15:35:16;;;;;;;5.43;3.13;;;;;;;;;;5076766;28;20035;-77
2022/08/12 15:37:42;;;;;;;5.20;3.20;;;;;;;;;;5077726;28;20064;-78
2022/08/12 15:40:10;;;;;;;7.15;3.20;;;;;;;;;;5078072;28;20044;-77
2022/08/12 15:42:37;;;;;;;7.75;3.38;;;;;;;;;;5077456;28;20032;-77
2022/08/12 15:45:04;;;;;;;5.50;3.28;;;;;;;;;;5078990;28;20033;-78
2022/08/12 15:47:30;;;;;;;6.97;3.30;;;;;;;;;;5070291;28;20033;-82
2022/08/12 15:49:57;;;;;;;5.18;3.35;;;;;;;;;;5071478;28;20048;-78
2022/08/12 15:52:24;;;;;;;5.90;3.17;;;;;;;;;;5075634;28;20040;-78
2022/08/12 15:54:53;;;;;;;7.63;3.45;;;;;;;;;;5078428;28;20090;-78
2022/08/12 15:57:19;;;;;;;6.68;3.40;;;;;;;;;;5060316;28;20024;-78
2022/08/12 15:59:45;;;;;;;7.68;3.08;;;;;;;;;;5059225;28;20056;-77
2022/08/12 16:02:13;;;;;;;5.50;3.20;;;;;;;;;;5060910;28;20028;-79
2022/08/12 16:04:42;;;;;;;4.35;3.20;;;;;;;;;;5077900;28;20036;-77
2022/08/12 16:07:09;;;;;;;7.95;3.50;;;;;;;;;;5078216;28;20072;-77
2022/08/12 16:09:35;;;;;;;6.15;3.35;;;;;;;;;;5077363;28;20036;-77
2022/08/12 16:12:02;;;;;;;4.03;3.03;;;;;;;;;;5082597;22;20449;-84
2022/08/12 16:14:31;;;;;;;6.65;3.08;;;;;;;;;;5044072;28;20118;-84
2022/08/12 16:16:58;;;;;;;4.38;3.10;;;;;;;;;;5049813;28;20049;-84
2022/08/12 16:19:24;;;;;;;5.93;3.38;;;;;;;;;;5031736;28;20076;-84
2022/08/12 16:21:50;;;;;;;6.88;3.58;;;;;;;;;;5030109;28;20124;-83
2022/08/12 16:24:19;;;;;;;5.15;3.60;;;;;;;;;;5028959;28;20053;-84
2022/08/12 16:26:45;;;;;;;7.43;3.30;;;;;;;;;;5029064;28;20041;-84
2022/08/12 16:29:12;;;;;;;4.28;3.72;;;;;;;;;;5028768;28;20053;-84
2022/08/12 16:31:39;;;;;;;4.70;3.50;;;;;;;;;;5027108;28;20044;-84
2022/08/12 16:34:06;;;;;;;5.85;3.50;;;;;;;;;;5046834;28;20140;-83
2022/08/12 16:36:32;;;;;;;7.35;3.58;;;;;;;;;;5018882;28;20046;-84